createdAt,value
2019-04-01T00:00:48.541Z,5.10
2019-04-01T00:03:17.821Z,6.53
2019-04-01T00:05:46.852Z,8.27
2019-04-01T00:08:16.061Z,5.57
2019-04-01T00:10:45.254Z,9.60
2019-04-01T00:13:14.419Z,9.30
2019-04-01T00:15:43.520Z,7.17
2019-04-01T00:18:12.643Z,9.33
2019-04-01T00:20:41.857Z,7.33
2019-04-01T00:23:11.189Z,6.43
2019-04-01T00:25:40.410Z,7.57
2019-04-01T00:28:09.529Z,5.33
2019-04-01T00:30:38.731Z,8.07
2019-04-01T00:33:07.871Z,3.50
2019-04-01T00:35:37.070Z,3.73
2019-04-01T00:38:06.215Z,12.73
2019-04-01T00:40:35.312Z,6.53
2019-04-01T00:43:23.863Z,3.57
2019-04-01T00:45:53.420Z,8.20
2019-04-01T00:48:22.646Z,7.80
2019-04-01T00:50:51.806Z,6.73
2019-04-01T00:53:20.961Z,8.77
2019-04-01T00:55:50.059Z,6.63
2019-04-01T00:58:19.191Z,5.73
2019-04-01T01:00:48.380Z,4.83
2019-04-01T01:03:17.517Z,5.07
2019-04-01T01:05:46.661Z,5.67
2019-04-01T01:08:15.780Z,6.63
2019-04-01T01:10:44.879Z,11.03
2019-04-01T01:13:14.015Z,7.13
2019-04-01T01:15:43.160Z,8.13
2019-04-01T01:18:12.311Z,6.90
2019-04-01T01:20:41.454Z,7.57
2019-04-01T01:23:10.593Z,5.93
2019-04-01T01:25:39.749Z,3.97
2019-04-01T01:28:08.961Z,4.87
2019-04-01T01:30:38.063Z,8.27
2019-04-01T01:33:07.219Z,4.13
2019-04-01T01:35:36.350Z,5.47
2019-04-01T01:38:05.512Z,4.17
2019-04-01T01:40:34.616Z,5.80
2019-04-01T01:43:03.718Z,7.20
2019-04-01T01:45:32.861Z,4.60
2019-04-01T01:48:01.991Z,5.53
2019-04-01T01:50:31.105Z,6.60
2019-04-01T01:53:00.209Z,4.70
2019-04-01T01:55:29.388Z,6.10
2019-04-01T01:57:58.744Z,8.63
2019-04-01T02:00:28.779Z,11.00
2019-04-01T02:02:57.909Z,6.63
2019-04-01T02:05:27.030Z,5.83
2019-04-01T02:07:56.184Z,3.20
2019-04-01T02:10:25.311Z,5.40
2019-04-01T02:12:54.445Z,5.33
2019-04-01T02:15:23.584Z,5.53
2019-04-01T02:17:52.664Z,5.47
2019-04-01T02:20:21.889Z,5.93
2019-04-01T02:22:51.020Z,8.87
2019-04-01T02:25:20.187Z,6.80
2019-04-01T02:27:49.331Z,4.33
2019-04-01T02:30:18.512Z,6.23
2019-04-01T02:32:47.624Z,4.17
2019-04-01T02:35:16.759Z,5.33
2019-04-01T02:37:45.847Z,4.87
2019-04-01T02:40:15.045Z,4.13
2019-04-01T02:42:44.139Z,9.03
2019-04-01T02:45:13.290Z,6.00
2019-04-01T02:47:42.416Z,3.73
2019-04-01T02:50:11.562Z,4.47
2019-04-01T02:52:40.678Z,8.00
2019-04-01T02:55:09.842Z,3.47
2019-04-01T02:57:39.025Z,4.17
2019-04-01T03:00:08.255Z,4.90
2019-04-01T03:02:37.463Z,5.33
2019-04-01T03:05:07.131Z,5.00
2019-04-01T03:07:36.314Z,3.93
2019-04-01T03:10:05.518Z,7.20
2019-04-01T03:12:34.839Z,3.83
2019-04-01T03:15:04.127Z,7.23
2019-04-01T03:17:33.274Z,5.83
2019-04-01T03:20:02.424Z,6.40
2019-04-01T03:22:31.558Z,5.77
2019-04-01T03:25:00.744Z,2.80
2019-04-01T03:27:29.812Z,6.23
2019-04-01T03:29:58.957Z,5.40
2019-04-01T03:32:28.115Z,8.50
2019-04-01T03:34:57.252Z,7.67
2019-04-01T03:37:26.399Z,5.50
2019-04-01T03:39:55.506Z,4.33
2019-04-01T03:42:24.625Z,7.37
2019-04-01T03:44:55.355Z,5.30
2019-04-01T03:47:24.720Z,4.20
2019-04-01T03:49:53.845Z,5.53
2019-04-01T03:52:23.122Z,8.10
2019-04-01T03:54:52.266Z,4.63
2019-04-01T03:57:21.529Z,7.03
2019-04-01T03:59:50.636Z,6.43
2019-04-01T04:02:19.837Z,11.47
2019-04-01T04:04:49.015Z,5.53
2019-04-01T04:07:18.166Z,6.43
2019-04-01T04:09:47.236Z,3.40
2019-04-01T04:12:16.371Z,5.07
2019-04-01T04:14:45.664Z,7.07
2019-04-01T04:17:14.806Z,5.83
2019-04-01T04:19:43.943Z,7.77
2019-04-01T04:22:13.133Z,4.73
2019-04-01T04:24:42.285Z,4.33
2019-04-01T04:27:11.758Z,7.70
2019-04-01T04:29:40.865Z,8.33
2019-04-01T04:32:10.024Z,11.63
2019-04-01T04:34:39.181Z,3.10
2019-04-01T04:37:08.397Z,6.40
2019-04-01T04:39:37.555Z,4.40
2019-04-01T04:42:06.794Z,8.53
2019-04-01T04:44:35.953Z,4.83
2019-04-01T04:47:05.113Z,9.20
2019-04-01T04:49:34.272Z,5.30
2019-04-01T04:52:04.733Z,7.47
2019-04-01T04:54:34.119Z,4.80
2019-04-01T04:57:03.489Z,7.23
2019-04-01T04:59:32.659Z,4.40
2019-04-01T05:02:01.844Z,5.43
2019-04-01T05:04:31.026Z,12.53
2019-04-01T05:07:00.110Z,8.93
2019-04-01T05:09:29.230Z,8.20
2019-04-01T05:11:58.471Z,5.37
2019-04-01T05:14:27.623Z,7.50
2019-04-01T05:16:56.824Z,7.07
2019-04-01T05:19:26.048Z,4.20
2019-04-01T05:21:55.278Z,9.23
2019-04-01T05:24:24.579Z,10.00
2019-04-01T05:26:53.740Z,3.20
2019-04-01T05:29:22.960Z,7.57
2019-04-01T05:31:52.074Z,9.33
2019-04-01T05:34:21.372Z,12.07
2019-04-01T05:36:50.490Z,6.03
2019-04-01T05:39:19.600Z,11.73
2019-04-01T05:41:48.696Z,4.30
2019-04-01T05:44:18.094Z,5.40
2019-04-01T05:46:47.239Z,6.63
2019-04-01T05:49:17.347Z,5.57
2019-04-01T05:51:46.540Z,9.93
2019-04-01T05:54:15.730Z,7.73
2019-04-01T05:56:44.894Z,7.60
2019-04-01T05:59:14.062Z,5.30
2019-04-01T06:01:45.364Z,8.37
2019-04-01T06:04:14.639Z,10.73
2019-04-01T06:06:43.793Z,6.97
2019-04-01T06:09:12.885Z,11.53
2019-04-01T06:11:41.988Z,5.80
2019-04-01T06:14:11.242Z,7.63
2019-04-01T06:16:40.375Z,7.70
2019-04-01T06:19:09.631Z,9.47
2019-04-01T06:21:38.807Z,8.90
2019-04-01T06:24:08.027Z,7.73
2019-04-01T06:26:39.969Z,7.73
2019-04-01T06:29:09.139Z,6.53
2019-04-01T06:31:38.363Z,8.17
2019-04-01T06:34:07.545Z,6.53
2019-04-01T06:36:38.934Z,9.47
2019-04-01T06:39:08.293Z,10.03
2019-04-01T06:41:37.411Z,10.40
2019-04-01T06:44:06.634Z,11.23
2019-04-01T06:46:37.129Z,13.67
2019-04-01T06:49:06.288Z,9.60
2019-04-01T06:51:35.467Z,9.10
2019-04-01T06:54:04.583Z,8.97
2019-04-01T06:56:33.859Z,7.13
2019-04-01T06:59:05.785Z,7.07
2019-04-01T07:01:35.749Z,7.63
2019-04-01T07:04:04.963Z,6.50
2019-04-01T07:06:34.142Z,8.43
2019-04-01T07:09:04.907Z,6.60
2019-04-01T07:11:34.948Z,12.30
2019-04-01T07:14:04.945Z,5.07
2019-04-01T07:16:34.187Z,7.63
2019-04-01T07:19:03.284Z,7.67
2019-04-01T07:21:32.797Z,5.57
2019-04-01T07:24:01.972Z,11.77
2019-04-01T07:26:31.325Z,6.73
2019-04-01T07:29:00.592Z,6.00
2019-04-01T07:31:29.815Z,7.77
2019-04-01T07:33:58.975Z,6.50
2019-04-01T07:36:28.988Z,6.83
2019-04-01T07:38:58.124Z,7.97
2019-04-01T07:41:28.466Z,8.27
2019-04-01T07:43:57.695Z,10.23
2019-04-01T07:46:27.052Z,6.20
2019-04-01T07:48:56.364Z,6.67
2019-04-01T07:51:25.690Z,8.40
2019-04-01T07:53:54.826Z,6.40
2019-04-01T07:56:24.847Z,7.17
2019-04-01T07:58:54.045Z,6.90
2019-04-01T08:01:23.239Z,7.40
2019-04-01T08:03:52.374Z,9.83
2019-04-01T08:06:21.598Z,8.70
2019-04-01T08:08:50.699Z,5.00
2019-04-01T08:11:19.917Z,8.07
2019-04-01T08:13:49.002Z,5.93
2019-04-01T08:16:18.153Z,7.57
2019-04-01T08:18:47.306Z,8.43
2019-04-01T08:21:16.445Z,5.93
2019-04-01T08:23:45.531Z,6.63
2019-04-01T08:26:14.739Z,7.60
2019-04-01T08:28:43.848Z,9.67
2019-04-01T08:31:13.511Z,9.17
2019-04-01T08:33:42.689Z,5.60
2019-04-01T08:36:11.877Z,8.67
2019-04-01T08:38:41.482Z,6.03
2019-04-01T08:41:10.892Z,11.37
2019-04-01T08:43:40.223Z,9.17
2019-04-01T08:46:09.676Z,6.57
2019-04-01T08:48:39.037Z,5.70
2019-04-01T08:51:08.464Z,6.73
2019-04-01T08:53:37.894Z,7.00
2019-04-01T08:56:07.235Z,9.53
2019-04-01T08:58:36.567Z,7.13
2019-04-01T09:01:05.875Z,7.40
2019-04-01T09:03:35.522Z,7.87
2019-04-01T09:06:05.138Z,6.13
2019-04-01T09:08:34.807Z,7.47
2019-04-01T09:11:04.199Z,8.53
2019-04-01T09:13:33.675Z,6.27
2019-04-01T09:16:03.013Z,8.77
2019-04-01T09:18:32.540Z,7.70
2019-04-01T09:21:02.109Z,7.10
2019-04-01T09:23:31.763Z,8.20
2019-04-01T09:26:01.399Z,8.13
2019-04-01T09:28:30.878Z,7.73
2019-04-01T09:31:00.262Z,6.87
2019-04-01T09:33:29.636Z,8.03
2019-04-01T09:35:59.038Z,8.80
2019-04-01T09:38:29.286Z,9.40
2019-04-01T09:40:58.667Z,8.75
2019-04-01T09:43:27.903Z,8.20
2019-04-01T09:45:57.102Z,8.28
2019-04-01T09:48:26.338Z,7.30
2019-04-01T09:50:55.566Z,6.90
2019-04-01T09:53:24.805Z,9.28
2019-04-01T09:55:53.949Z,7.67
2019-04-01T09:58:23.208Z,8.40
2019-04-01T10:00:53.390Z,8.93
2019-04-01T10:03:22.776Z,9.43
2019-04-01T10:05:52.008Z,8.20
2019-04-01T10:08:21.319Z,9.63
2019-04-01T10:10:50.490Z,6.80
2019-04-01T10:13:19.686Z,7.85
2019-04-01T10:15:48.852Z,8.65
2019-04-01T10:18:18.071Z,7.62
2019-04-01T10:20:47.320Z,8.70
2019-04-01T10:23:16.810Z,7.65
2019-04-01T10:25:46.088Z,7.53
2019-04-01T10:28:15.328Z,11.55
2019-04-01T12:57:41.371Z,8.97
2019-04-01T13:07:12.946Z,10.40
2019-04-01T13:13:15.594Z,9.10
2019-04-01T13:15:57.783Z,9.67
2019-04-01T13:18:26.967Z,7.20
2019-04-01T13:20:56.106Z,11.40
2019-04-01T13:23:25.213Z,10.67
2019-04-01T13:25:54.418Z,9.20
2019-04-01T13:28:24.125Z,9.47
2019-04-01T13:30:53.268Z,12.27
2019-04-01T13:33:22.422Z,9.23
2019-04-01T13:35:52.737Z,7.23
2019-04-01T13:38:22.020Z,8.70
2019-04-01T13:40:51.182Z,10.27
2019-04-01T13:43:20.435Z,11.90
2019-04-01T13:45:50.372Z,14.13
2019-04-01T13:48:19.892Z,9.37
2019-04-01T13:50:49.060Z,9.40
2019-04-01T13:53:18.283Z,8.67
2019-04-01T13:55:50.416Z,9.50
2019-04-01T13:58:19.704Z,9.57
2019-04-01T14:00:49.703Z,6.73
2019-04-01T14:03:22.072Z,7.03
2019-04-01T14:06:18.390Z,7.60
2019-04-01T14:08:50.494Z,9.30
2019-04-01T14:11:23.889Z,8.30
2019-04-01T14:13:55.787Z,9.27
2019-04-01T14:16:28.291Z,8.50
2019-04-01T14:18:59.332Z,7.70
2019-04-01T14:21:31.331Z,7.00
2019-04-01T14:24:01.952Z,8.07
2019-04-01T14:26:31.957Z,6.60
2019-04-01T14:29:03.205Z,8.80
2019-04-01T14:31:36.900Z,8.57
2019-04-01T14:34:13.050Z,9.70
2019-04-01T14:36:38.394Z,9.37
2019-04-01T14:39:07.861Z,8.67
2019-04-01T14:41:37.041Z,9.27
2019-04-01T14:44:06.208Z,8.67
2019-04-01T14:46:35.422Z,6.30
2019-04-01T14:49:04.710Z,8.57
2019-04-01T14:51:33.811Z,9.27
2019-04-01T14:54:03.010Z,10.87
2019-04-01T14:56:32.175Z,11.80
2019-04-01T14:59:01.388Z,10.40
2019-04-01T15:01:30.563Z,10.40
2019-04-01T15:03:59.746Z,11.20
2019-04-01T15:06:29.282Z,9.80
2019-04-01T15:08:58.526Z,11.90
2019-04-01T15:11:27.661Z,9.37
2019-04-01T15:13:59.927Z,10.47
2019-04-01T15:16:27.774Z,7.23
2019-04-01T15:18:57.021Z,8.90
2019-04-01T15:21:26.377Z,8.97
2019-04-01T15:23:55.489Z,7.63
2019-04-01T15:26:24.770Z,7.27
2019-04-01T15:28:53.918Z,8.03
2019-04-01T15:31:23.049Z,7.60
2019-04-01T15:33:52.164Z,8.30
2019-04-01T15:36:21.388Z,8.03
2019-04-01T15:38:51.086Z,7.20
2019-04-01T15:41:20.575Z,9.80
2019-04-01T15:43:49.711Z,9.77
2019-04-01T15:46:18.936Z,10.00
2019-04-01T15:48:48.274Z,10.10
2019-04-01T15:51:17.667Z,6.90
2019-04-01T15:53:46.805Z,10.23
2019-04-01T15:56:15.951Z,10.37
2019-04-01T15:58:45.063Z,8.40
2019-04-01T16:01:14.329Z,7.23
2019-04-01T16:03:43.430Z,8.10
2019-04-01T16:06:12.613Z,13.43
2019-04-01T16:08:41.817Z,7.20
2019-04-01T16:11:11.066Z,9.23
2019-04-01T16:13:40.207Z,10.00
2019-04-01T16:16:09.361Z,10.10
2019-04-01T16:18:38.447Z,9.87
2019-04-01T16:21:07.926Z,7.23
2019-04-01T16:23:37.102Z,6.57
2019-04-01T16:26:09.351Z,7.67
2019-04-01T16:28:37.261Z,9.67
2019-04-01T16:31:06.810Z,7.97
2019-04-01T16:33:36.069Z,7.40
2019-04-01T16:36:06.570Z,10.17
2019-04-01T16:38:36.555Z,10.67
2019-04-01T16:41:05.678Z,7.20
2019-04-01T16:43:38.057Z,8.33
2019-04-01T16:46:05.677Z,8.27
2019-04-01T16:48:34.801Z,8.53
2019-04-01T16:51:03.970Z,13.53
2019-04-01T16:53:33.142Z,6.87
2019-04-01T16:56:02.240Z,9.93
2019-04-01T16:58:31.914Z,7.97
2019-04-01T17:01:02.612Z,9.27
2019-04-01T17:03:31.898Z,8.30
2019-04-01T17:06:01.075Z,6.73
2019-04-01T17:08:30.285Z,10.03
2019-04-01T17:10:59.531Z,10.23
2019-04-01T17:13:30.434Z,10.37
2019-04-01T17:16:01.552Z,7.93
2019-04-01T17:18:31.612Z,11.37
2019-04-01T17:21:00.832Z,10.43
2019-04-01T17:23:30.776Z,10.50
2019-04-01T17:26:00.202Z,12.57
2019-04-01T17:28:29.362Z,11.77
2019-04-01T17:30:58.581Z,9.47
2019-04-01T17:33:28.717Z,13.03
2019-04-01T17:35:57.973Z,11.10
2019-04-01T17:38:27.147Z,7.00
2019-04-01T17:40:56.255Z,7.10
2019-04-01T17:43:25.475Z,8.23
2019-04-01T17:45:54.622Z,7.93
2019-04-01T17:48:23.806Z,7.90
2019-04-01T17:50:52.922Z,8.00
2019-04-01T17:53:22.301Z,10.80
2019-04-01T17:55:51.507Z,7.23
2019-04-01T17:58:20.607Z,7.13
2019-04-01T18:00:57.829Z,6.60
2019-04-01T18:03:26.943Z,8.17
2019-04-01T18:05:56.079Z,8.93
2019-04-01T18:08:25.286Z,8.57
2019-04-01T18:10:54.389Z,9.17
2019-04-01T18:13:23.575Z,9.90
2019-04-01T18:15:52.698Z,9.93
2019-04-01T18:18:26.958Z,8.57
2019-04-01T18:20:53.302Z,8.40
2019-04-01T18:23:22.551Z,7.93
2019-04-01T18:25:51.654Z,11.93
2019-04-01T18:28:20.807Z,9.60
2019-04-01T18:30:50.177Z,11.07
2019-04-01T18:33:20.050Z,8.13
2019-04-01T18:35:49.510Z,8.70
2019-04-01T18:38:18.840Z,11.70
2019-04-01T18:40:48.107Z,7.23
2019-04-01T18:43:19.628Z,8.47
2019-04-01T18:45:49.105Z,9.10
2019-04-01T18:48:19.483Z,9.50
2019-04-01T18:50:49.184Z,12.47
2019-04-01T18:53:18.644Z,10.30
2019-04-01T18:55:48.136Z,11.70
2019-04-01T18:58:17.466Z,11.70
2019-04-01T19:00:47.270Z,12.43
2019-04-01T19:03:19.879Z,13.27
2019-04-01T19:05:49.175Z,9.17
2019-04-01T19:08:18.677Z,12.60
2019-04-01T19:11:02.171Z,7.97
2019-04-01T19:13:26.631Z,10.47
2019-04-01T19:15:56.645Z,12.93
2019-04-01T19:18:26.206Z,11.63
2019-04-01T19:20:57.111Z,9.67
2019-04-01T19:23:26.172Z,13.17
2019-04-01T19:25:55.525Z,12.73
2019-04-01T19:28:24.590Z,9.83
2019-04-01T19:30:53.727Z,9.03
2019-04-01T19:33:22.957Z,6.63
2019-04-01T19:35:52.051Z,8.70
2019-04-01T19:38:21.557Z,10.37
2019-04-01T19:40:51.291Z,9.47
2019-04-01T19:43:21.221Z,9.87
2019-04-01T19:45:50.807Z,13.13
2019-04-01T19:48:19.935Z,8.00
2019-04-01T19:50:49.037Z,9.93
2019-04-01T19:53:18.181Z,10.43
2019-04-01T19:55:47.345Z,9.83
2019-04-01T19:58:16.533Z,10.10
2019-04-01T20:00:45.624Z,9.73
2019-04-01T20:03:14.900Z,15.87
2019-04-01T20:05:44.058Z,15.10
2019-04-01T20:08:14.213Z,9.43
2019-04-01T20:10:43.424Z,11.13
2019-04-01T20:13:12.537Z,12.13
2019-04-01T20:15:41.741Z,10.00
2019-04-01T20:18:10.857Z,10.47
2019-04-01T20:20:41.638Z,10.13
2019-04-01T20:23:11.003Z,11.53
2019-04-01T20:25:40.061Z,13.70
2019-04-01T20:28:09.216Z,9.50
2019-04-01T20:30:38.494Z,11.03
2019-04-01T20:33:17.752Z,15.07
2019-04-01T20:35:38.590Z,11.63
2019-04-01T20:38:07.681Z,10.47
2019-04-01T20:40:36.761Z,8.63
2019-04-01T20:43:05.939Z,14.43
2019-04-01T20:45:35.076Z,12.13
2019-04-01T20:48:04.488Z,9.20
2019-04-01T20:50:33.963Z,12.60
2019-04-01T20:53:03.093Z,13.13
2019-04-01T20:55:32.198Z,12.27
2019-04-01T20:58:01.343Z,12.10
2019-04-01T21:00:30.582Z,10.47
2019-04-01T21:03:01.085Z,12.73
2019-04-01T21:05:30.372Z,11.43
2019-04-01T21:07:59.681Z,12.80
2019-04-01T21:10:28.794Z,13.73
2019-04-01T21:12:57.923Z,15.63
2019-04-01T21:15:27.002Z,11.87
2019-04-01T21:17:56.123Z,13.67
2019-04-01T21:20:25.231Z,13.27
2019-04-01T21:22:54.439Z,10.83
2019-04-01T21:25:23.519Z,10.83
2019-04-01T21:27:53.373Z,13.73
2019-04-01T21:30:22.601Z,14.63
2019-04-01T21:32:51.722Z,10.33
2019-04-01T21:35:20.817Z,13.07
2019-04-01T21:37:49.930Z,14.87
2019-04-01T21:40:19.191Z,14.67
2019-04-01T21:42:48.397Z,20.23
2019-04-01T21:45:17.467Z,15.83
2019-04-01T21:47:46.615Z,15.10
2019-04-01T21:50:15.943Z,13.10
2019-04-01T21:52:45.063Z,11.27
2019-04-01T21:55:14.160Z,15.17
2019-04-01T21:57:43.379Z,10.00
2019-04-01T22:00:14.053Z,11.80
2019-04-01T22:02:44.134Z,13.23
2019-04-01T22:05:13.703Z,11.77
2019-04-01T22:07:44.075Z,13.03
2019-04-01T22:10:13.378Z,12.07
2019-04-01T22:12:42.499Z,12.90
2019-04-01T22:15:11.624Z,12.60
2019-04-01T22:17:42.010Z,9.00
2019-04-01T22:20:11.136Z,10.47
2019-04-01T22:22:40.310Z,12.77
2019-04-01T22:25:09.507Z,11.50
2019-04-01T22:27:38.618Z,12.47
2019-04-01T22:30:08.030Z,12.43
2019-04-01T22:32:37.126Z,11.83
2019-04-01T22:35:07.959Z,14.93
2019-04-01T22:37:38.409Z,10.73
2019-04-01T22:40:07.859Z,14.03
2019-04-01T22:42:36.973Z,10.93
2019-04-01T22:45:06.414Z,11.90
2019-04-01T22:47:35.516Z,12.63
2019-04-01T22:50:04.799Z,13.67
2019-04-01T22:52:35.238Z,12.27
2019-04-01T22:55:05.170Z,12.80
2019-04-01T22:57:34.281Z,11.70
2019-04-01T23:00:03.400Z,13.07
2019-04-01T23:02:40.097Z,12.17
2019-04-01T23:05:09.816Z,11.27
2019-04-01T23:07:39.941Z,11.40
2019-04-01T23:10:09.054Z,12.07
2019-04-01T23:12:38.167Z,9.77
2019-04-01T23:15:07.715Z,13.83
2019-04-01T23:17:38.278Z,13.33
2019-04-01T23:20:08.000Z,13.77
2019-04-01T23:22:37.160Z,16.67
2019-04-01T23:25:06.355Z,15.97
2019-04-01T23:27:35.410Z,12.67
2019-04-01T23:30:06.692Z,17.30
2019-04-01T23:32:35.784Z,14.30
2019-04-01T23:35:05.007Z,14.23
2019-04-01T23:37:34.124Z,9.93
2019-04-01T23:40:03.459Z,13.50
2019-04-01T23:42:32.873Z,10.40
2019-04-01T23:45:01.993Z,15.33
2019-04-01T23:47:31.091Z,15.97
2019-04-01T23:50:00.215Z,10.27
2019-04-01T23:52:29.339Z,10.57
2019-04-01T23:54:59.228Z,11.93
2019-04-01T23:57:29.250Z,16.23
2019-04-01T23:59:58.395Z,16.13
